Tradewind Moon — HOPZ — position and weather

sailwx.info

Track history (hours):
 
Tides and Currents Weather Stations Pressure Air Temp Water Temp Dewpoint Dewpoint Depression Visibility Wind Speed Wind Dir Waves Ship Positions

Tradewind Moon

Last reported at 2018-May-23 02:45 UTC. Time now 2018-May-24 00:15 UTC.
Position N 36°59' E 013°26'.

Length 112 m; draft 6.5 m.

Type: Tanker. MMSI: 356123000.

Date/timePositionNaut miles runAvg speedWind from/ knotsBaromVisibWave heightAir tempDewpointWater temp
2018-May-23 02:45N 36°59' E 013°26'312.7
2018-May-23 02:30N 36°57' E 013°30'613.0
2018-May-23 02:00N 36°55' E 013°37'713.3
2018-May-23 01:30N 36°52' E 013°45'713.5
2018-May-23 01:00N 36°50' E 013°53'713.7
2018-May-23 00:30N 36°48' E 014°01'713.7
2018-May-22 23:59N 36°45' E 014°09'713.6
2018-May-22 23:30N 36°43' E 014°17'713.2
2018-May-22 23:01N 36°41' E 014°25'712.9
2018-May-22 22:29N 36°38' E 014°33'  
2018-May-16 12:07N 36°19' E 035°33'113.2
2018-May-16 12:00N 36°18' E 035°32'713.1
2018-May-16 11:28N 36°16' E 035°23'613.1
2018-May-16 11:01N 36°14' E 035°16'  
2018-May-13 08:45N 36°18' E 016°04'412.9
2018-May-13 08:25N 36°18' E 015°59'2213.0
2018-May-13 06:41N 36°21' E 015°31'212.9
2018-May-13 06:30N 36°21' E 015°28'713.0
2018-May-13 06:00N 36°21' E 015°20'713.1
2018-May-13 05:30N 36°22' E 015°12'714.1
2018-May-13 05:00N 36°23' E 015°03'814.9
2018-May-13 04:29N 36°25' E 014°54'714.0
2018-May-13 04:00N 36°27' E 014°46'713.2
2018-May-13 03:30N 36°29' E 014°38'613.0
2018-May-13 03:00N 36°30' E 014°30'  
Track history (hours):
 
Tides and Currents Weather Stations Pressure Air Temp Water Temp Dewpoint Dewpoint Depression Visibility Wind Speed Wind Dir Waves Ship Positions

Tradewind Moon

Last reported at 2018-May-23 02:45 UTC. Time now 2018-May-24 00:15 UTC.
Position N 36°59' E 013°26'.

Length 112 m; draft 6.5 m.

Type: Tanker. MMSI: 356123000.

Date/timePositionNaut miles runAvg speedWind from/ knotsBaromVisibWave heightAir tempDewpointWater temp
2018-May-23 02:45N 36°59' E 013°26'312.7
2018-May-23 02:30N 36°57' E 013°30'613.0
2018-May-23 02:00N 36°55' E 013°37'713.3
2018-May-23 01:30N 36°52' E 013°45'713.5
2018-May-23 01:00N 36°50' E 013°53'713.7
2018-May-23 00:30N 36°48' E 014°01'713.7
2018-May-22 23:59N 36°45' E 014°09'713.6
2018-May-22 23:30N 36°43' E 014°17'713.2
2018-May-22 23:01N 36°41' E 014°25'712.9
2018-May-22 22:29N 36°38' E 014°33'  
2018-May-16 12:07N 36°19' E 035°33'113.2
2018-May-16 12:00N 36°18' E 035°32'713.1
2018-May-16 11:28N 36°16' E 035°23'613.1
2018-May-16 11:01N 36°14' E 035°16'  
2018-May-13 08:45N 36°18' E 016°04'412.9
2018-May-13 08:25N 36°18' E 015°59'2213.0
2018-May-13 06:41N 36°21' E 015°31'212.9
2018-May-13 06:30N 36°21' E 015°28'713.0
2018-May-13 06:00N 36°21' E 015°20'713.1
2018-May-13 05:30N 36°22' E 015°12'714.1
2018-May-13 05:00N 36°23' E 015°03'814.9
2018-May-13 04:29N 36°25' E 014°54'714.0
2018-May-13 04:00N 36°27' E 014°46'713.2
2018-May-13 03:30N 36°29' E 014°38'613.0
2018-May-13 03:00N 36°30' E 014°30'  

Dump ship's entire track history